Flight Track Log - Related Links

Times and Time Zones

All times are in EDT time to prevent confusion due to time zone crossing. See the SAS4023 flight status page for this flight to view local times or setup timezone preferences in your user account.

Time Position Orientation Groundspeed Altitude Reporting Facility
EDT Latitude Longitude Course Direction KTS MPH feet Rate Location/Type
Fri 05:48:22 AM 60.1890 11.0760 180° South 143 165 1,100  Level FlightAware ADS-B
Fri 05:48:37 AM 60.1790 11.0710 194° South 142 163 1,700 2,571 Climbing FlightAware ADS-B
Fri 05:48:57 AM 60.1670 11.0610 203° Southwest 147 169 2,600 2,400 Climbing FlightAware ADS-B
Fri 05:49:12 AM 60.1620 11.0420 242° Southwest 169 194 3,100 2,229 Climbing FlightAware ADS-B
Fri 05:49:32 AM 60.1540 11.0090 244° Southwest 200 230 3,900 2,836 Climbing FlightAware ADS-B
Fri 05:50:07 AM 60.1420 10.9460 249° West 236 272 5,700 3,500 Climbing FlightAware ADS-B
Fri 05:50:32 AM 60.1400 10.8930 266° West 252 290 7,400 4,114 Climbing FlightAware ADS-B
Fri 05:50:42 AM 60.1390 10.8690 265° West 257 296 8,100 3,700 Climbing FlightAware ADS-B
Fri 05:51:32 AM 60.1330 10.7410 265° West 300 345 11,100 3,600 Climbing FlightAware ADS-B
Fri 05:52:07 AM 60.1280 10.6380 264° West 321 369 13,200 3,726 Climbing FlightAware ADS-B
Fri 05:53:07 AM 60.1210 10.4560 266° West 342 394 17,000 3,600 Climbing FlightAware ADS-B
Fri 05:53:52 AM 60.1260 10.3080 274° West 363 418 19,500 3,300 Climbing FlightAware ADS-B
Fri 05:54:27 AM 60.1330 10.1890 277° West 373 429 21,400 3,133 Climbing FlightAware ADS-B
Fri 05:55:22 AM 60.1390 9.9970 274° West 385 443 24,200 2,914 Climbing FlightAware ADS-B
Fri 05:56:12 AM 60.1420 9.8190 272° West 388 447 26,500 2,753 Climbing FlightAware ADS-B
Fri 05:56:47 AM 60.1240 9.6990 253° West 380 437 28,100 2,867 Climbing FlightAware ADS-B
Fri 05:57:42 AM 60.0810 9.5350 242° Southwest 369 425 30,800 2,229 Climbing FlightAware ADS-B
Fri 05:58:32 AM 60.0400 9.3830 242° Southwest 367 422 32,000 847 Climbing FlightAware ADS-B
Fri 05:59:07 AM 60.0130 9.2790 243° Southwest 371 427 32,000  Level FlightAware ADS-B
Fri 06:00:02 AM 59.9680 9.1110 242° Southwest 373 429 32,000  Level FlightAware ADS-B
Fri 06:00:52 AM 59.9270 8.9610 241° Southwest 372 428 32,000  Level FlightAware ADS-B
Fri 06:01:27 AM 59.8980 8.8530 242° Southwest 372 428 32,000  Level FlightAware ADS-B
Fri 06:02:22 AM 59.8540 8.6910 242° Southwest 374 430 32,000  Level FlightAware ADS-B
Fri 06:03:12 AM 59.8120 8.5380 241° Southwest 376 433 32,000  Level FlightAware ADS-B
Fri 06:03:47 AM 59.7820 8.4330 240° Southwest 376 433 32,000  Level FlightAware ADS-B
Fri 06:04:32 AM 59.7460 8.2990 242° Southwest 377 434 32,000 -1,000 Level FlightAware ADS-B
Fri 06:05:17 AM 59.7060 8.1550 241° Southwest 378 435 30,500 -1,482 Descending FlightAware ADS-B
Fri 06:05:57 AM 59.6710 8.0330 240° Southwest 377 434 29,900 -1,341 Descending FlightAware ADS-B
Fri 06:06:42 AM 59.6330 7.8970 241° Southwest 372 428 28,600 -1,976 Descending FlightAware ADS-B
Fri 06:07:22 AM 59.6000 7.7760 242° Southwest 362 417 27,100 -2,147 Descending FlightAware ADS-B
Fri 06:08:17 AM 59.5560 7.6220 241° Southwest 352 405 25,200 -2,040 Descending FlightAware ADS-B
Fri 06:09:02 AM 59.5210 7.4990 241° Southwest 343 395 23,700 -1,976 Descending FlightAware ADS-B
Fri 06:09:42 AM 59.4910 7.3890 242° Southwest 340 391 22,400 -2,025 Descending FlightAware ADS-B
Fri 06:10:22 AM 59.4610 7.2810 241° Southwest 336 387 21,000 -1,976 Descending FlightAware ADS-B
Fri 06:11:07 AM 59.4280 7.1610 242° Southwest 332 382 19,600 -1,765 Descending FlightAware ADS-B
Fri 06:11:47 AM 59.3990 7.0560 242° Southwest 326 375 18,500 -1,800 Descending FlightAware ADS-B
Fri 06:12:27 AM 59.3710 6.9540 242° Southwest 325 374 17,200 -1,906 Descending FlightAware ADS-B
Fri 06:13:12 AM 59.3390 6.8390 241° Southwest 322 371 15,800 -1,835 Descending FlightAware ADS-B
Fri 06:13:52 AM 59.3100 6.7360 241° Southwest 316 364 14,600 -1,875 Descending FlightAware ADS-B
Fri 06:14:32 AM 59.2820 6.6360 241° Southwest 310 357 13,300 -1,835 Descending FlightAware ADS-B
Fri 06:15:17 AM 59.2520 6.5320 241° Southwest 306 352 12,000 -1,800 Descending FlightAware ADS-B
Fri 06:16:02 AM 59.2210 6.4210 241° Southwest 297 342 10,600 -1,400 Descending FlightAware ADS-B
Fri 06:16:47 AM 59.1980 6.3150 247° West 273 314 9,900 -1,114 Descending FlightAware ADS-B
Fri 06:17:12 AM 59.1870 6.2580 249° West 267 307 9,300 -1,418 Descending FlightAware ADS-B
Fri 06:17:42 AM 59.1730 6.1910 248° West 261 300 8,600 -1,418 Descending FlightAware ADS-B
Fri 06:18:07 AM 59.1620 6.1390 248° West 257 296 8,000 -1,418 Descending FlightAware ADS-B
Fri 06:18:37 AM 59.1490 6.0740 249° West 254 292 7,300 -1,418 Descending FlightAware ADS-B
Fri 06:19:02 AM 59.1380 6.0180 249° West 255 293 6,700 -1,418 Descending FlightAware ADS-B
Fri 06:19:32 AM 59.1250 5.9540 248° West 255 293 6,000 -1,200 Descending FlightAware ADS-B
Fri 06:20:02 AM 59.1110 5.8910 247° West 245 282 5,500 -900 Descending FlightAware ADS-B
Fri 06:20:12 AM 59.1050 5.8740 236° Southwest 236 272 5,400 -600 Descending FlightAware ADS-B
Fri 06:20:42 AM 59.0850 5.8320 227° Southwest 219 252 5,100 -600 Descending FlightAware ADS-B
Fri 06:21:12 AM 59.0650 5.7900 227° Southwest 206 237 4,800 -545 Descending FlightAware ADS-B
Fri 06:21:37 AM 59.0490 5.7550 228° Southwest 202 232 4,600 -764 Descending FlightAware ADS-B
Fri 06:22:07 AM 59.0380 5.7030 248° West 205 236 4,100 -1,067 Descending FlightAware ADS-B
Fri 06:22:22 AM 59.0340 5.6790 252° West 199 229 3,800 -1,029 Descending FlightAware ADS-B
Fri 06:22:42 AM 59.0270 5.6470 247° West 181 208 3,500 -1,200 Descending FlightAware ADS-B
Fri 06:23:02 AM 59.0140 5.6340 207° Southwest 150 173 3,000 -1,440 Descending FlightAware ADS-B
Fri 06:23:32 AM 58.9930 5.6340 180° South 144 166 2,300 -1,091 Descending FlightAware ADS-B
Fri 06:23:57 AM 58.9760 5.6350 178° South 146 168 2,000 -720 Descending FlightAware ADS-B
Fri 06:24:22 AM 58.9610 5.6360 178° South 146 168 1,700 -764 Descending FlightAware ADS-B
Fri 06:24:52 AM 58.9420 5.6350 182° South 128 147 1,300 -720 Descending FlightAware ADS-B
Fri 06:25:12 AM 58.9300 5.6360 178° South 126 145 1,100 -655 Descending FlightAware ADS-B
Fri 06:25:47 AM 58.9080 5.6370 179° South 131 151 700 -738 Descending FlightAware ADS-B
Fri 06:26:17 AM 58.8920 5.6370 180° South 131 151 300 -800 Descending FlightAware ADS-B

Login

Don't have an account? Register now (free) for customized features, flight alerts, and more!